Time;durP1;ratioP1;P1;durP2;ratioP2;P2;SDS_P1;SDS_P2;PMS_P1;PMS_P2;Temp;Humidity;BMP_temperature;BMP_pressure;BME280_temperature;BME280_humidity;BME280_pressure;Samples;Min_cycle;Max_cycle;Signal;HPM_P1;HPM_P2
2021/07/14 00:00:09;;;;;;;18.85;17.05;;;;;;;25.93;61.33;99383.16;4899230;28;98567;-79
2021/07/14 00:02:35;;;;;;;17.92;16.15;;;;;;;25.90;61.67;99398.78;4911957;28;99804;-82
2021/07/14 00:05:01;;;;;;;18.33;16.33;;;;;;;25.80;62.24;99404.31;4897595;28;97154;-82
2021/07/14 00:07:27;;;;;;;18.65;16.70;;;;;;;25.78;62.09;99394.78;4897477;28;97227;-82
2021/07/14 00:09:52;;;;;;;18.00;16.48;;;;;;;25.56;62.52;99391.78;4913893;28;98264;-81
2021/07/14 00:12:19;;;;;;;18.83;17.02;;;;;;;25.54;62.54;99383.09;4898197;28;101078;-79
2021/07/14 00:15:03;;;;;;;19.45;17.63;;;;;;;25.67;62.54;99404.88;4899295;28;96976;-81
2021/07/14 00:17:41;;;;;;;18.67;17.08;;;;;;;25.55;62.68;99384.75;4901209;28;97247;-79
2021/07/14 00:22:51;;;;;;;19.73;17.92;;;;;;;25.53;62.89;99398.34;4915256;28;101799;-82
2021/07/14 00:25:16;;;;;;;19.40;17.60;;;;;;;25.66;62.54;99388.94;4897455;28;97510;-80
2021/07/14 00:27:44;;;;;;;19.50;17.80;;;;;;;25.43;63.04;99384.25;4882393;28;97362;-81
2021/07/14 00:30:15;;;;;;;18.45;16.75;;;;;;;25.45;63.05;99401.06;4881673;28;101602;-83
2021/07/14 00:32:40;;;;;;;;;;;;;;;25.29;63.76;99409.13;4899054;28;101269;-79
2021/07/14 00:35:08;;;;;;;18.58;16.80;;;;;;;25.28;63.67;99402.91;4914699;28;97083;-79
2021/07/14 00:37:35;;;;;;;18.80;17.02;;;;;;;25.41;63.43;99391.66;4898268;28;96817;-81
2021/07/14 00:40:01;;;;;;;17.95;16.45;;;;;;;25.35;63.46;99375.38;4914290;28;101879;-81
2021/07/14 00:42:27;;;;;;;17.27;15.65;;;;;;;25.27;63.90;99395.84;4865982;28;101472;-79
2021/07/14 00:44:54;;;;;;;18.77;16.08;;;;;;;25.29;63.85;99387.63;4926753;28;97915;-79
2021/07/14 00:47:26;;;;;;;17.73;16.02;;;;;;;25.22;64.02;99392.00;4915728;28;96935;-79
2021/07/14 00:49:51;;;;;;;17.50;15.95;;;;;;;25.12;64.12;99381.41;4916507;28;102207;-80
2021/07/14 00:52:17;;;;;;;18.88;17.10;;;;;;;25.32;63.89;99395.34;4916650;28;101576;-79
2021/07/14 00:54:43;;;;;;;18.05;16.45;;;;;;;25.19;64.11;99384.28;4918031;28;96852;-81
2021/07/14 00:57:08;;;;;;;18.23;16.40;;;;;;;25.20;64.23;99400.22;4901797;28;97308;-81
2021/07/14 00:59:34;;;;;;;18.75;16.92;;;;;;;25.33;63.79;99397.03;4916117;28;101655;-81
2021/07/14 01:01:59;;;;;;;16.30;14.60;;;;;;;25.15;64.00;99388.31;4933565;28;98057;-79
2021/07/14 01:04:32;;;;;;;17.48;15.95;;;;;;;25.12;64.30;99408.25;4916845;28;96911;-79
2021/07/14 01:07:13;;;;;;;18.48;16.77;;;;;;;25.09;64.63;99408.59;4908983;28;96933;-79
2021/07/14 01:09:46;;;;;;;16.92;15.50;;;;;;;24.97;64.49;99389.28;4896775;28;101797;-80
2021/07/14 01:12:17;;;;;;;18.30;16.67;;;;;;;25.05;64.64;99402.72;4914703;28;98432;-81
2021/07/14 01:15:02;;;;;;;18.23;16.52;;;;;;;25.00;64.75;99396.19;4898302;28;97042;-79
2021/07/14 01:17:29;;;;;;;20.13;18.35;;;;;;;25.05;64.62;99401.88;4898259;28;97089;-79
2021/07/14 01:20:05;;;;;;;19.83;17.88;;;;;;;24.82;64.74;99378.38;4914018;28;98504;-79
2021/07/14 01:22:46;;;;;;;17.73;16.08;;;;;;;24.97;64.26;99397.34;4881414;28;101388;-79
2021/07/14 01:25:33;;;;;;;18.23;16.60;;;;;;;24.91;65.13;99406.06;4897684;28;96671;-80
2021/07/14 01:27:59;;;;;;;19.38;17.50;;;;;;;24.85;65.16;99401.38;4894834;28;96892;-79
2021/07/14 01:30:25;;;;;;;20.42;18.63;;;;;;;24.70;65.46;99401.19;4912493;28;97995;-79
2021/07/14 01:32:52;;;;;;;20.30;18.70;;;;;;;24.60;65.56;99401.31;4896645;28;101497;-79
2021/07/14 01:35:25;;;;;;;21.13;18.83;;;;;;;24.76;65.26;99411.25;4896725;28;96792;-80
2021/07/14 01:37:52;;;;;;;20.58;18.42;;;;;;;24.84;65.30;99415.78;4898042;28;97001;-81
2021/07/14 01:40:19;;;;;;;19.60;17.75;;;;;;;24.83;65.47;99412.25;4912816;28;101512;-79
2021/07/14 01:42:46;;;;;;;21.00;18.58;;;;;;;24.72;65.62;99406.38;4897907;28;101026;-79
2021/07/14 01:45:12;;;;;;;21.20;19.00;;;;;;;24.63;65.89;99413.56;4897984;28;96662;-79
2021/07/14 01:47:39;;;;;;;19.45;17.73;;;;;;;24.60;65.95;99411.22;4896865;28;97694;-79
2021/07/14 01:50:05;;;;;;;22.10;20.15;;;;;;;24.61;66.40;99413.75;4913491;28;98138;-79
2021/07/14 01:52:31;;;;;;;19.83;18.02;;;;;;;24.53;66.23;99400.31;4912818;28;98023;-79
2021/07/14 01:54:58;;;;;;;20.73;18.30;;;;;;;24.64;66.07;99409.91;4897790;28;96623;-79
2021/07/14 01:57:27;;;;;;;19.85;17.75;;;;;;;24.60;66.08;99398.63;4896928;28;96963;-79
2021/07/14 01:59:53;;;;;;;20.52;18.67;;;;;;;24.52;66.21;99384.38;4897292;28;100930;-79
2021/07/14 02:02:21;;;;;;;21.25;19.08;;;;;;;24.56;66.54;99399.97;4896897;28;101692;-80
2021/07/14 02:04:47;;;;;;;21.50;19.50;;;;;;;24.71;66.04;99412.75;4897622;28;97057;-81
2021/07/14 02:07:24;;;;;;;21.40;19.27;;;;;;;24.62;66.18;99420.78;4882039;28;96886;-79
2021/07/14 02:09:50;;;;;;;22.13;19.75;;;;;;;24.56;66.36;99423.28;4897401;28;102057;-79
2021/07/14 02:12:29;;;;;;;20.85;19.05;;;;;;;24.43;66.81;99429.09;4897173;28;101035;-80
2021/07/14 02:14:59;;;;;;;21.77;19.77;;;;;;;24.29;67.32;99429.69;4899971;28;97090;-79
2021/07/14 02:17:28;;;;;;;22.17;19.80;;;;;;;24.31;67.48;99419.66;4916168;28;96647;-79
2021/07/14 02:19:55;;;;;;;20.95;18.40;;;;;;;24.13;67.61;99395.63;4916715;28;98064;-79
2021/07/14 02:22:21;;;;;;;19.30;17.20;;;;;;;24.11;67.70;99392.25;4915826;28;101237;-80
2021/07/14 02:24:46;;;;;;;22.60;20.20;;;;;;;24.21;67.81;99410.91;4932357;28;96651;-79
2021/07/14 02:27:12;;;;;;;19.83;18.02;;;;;;;24.25;67.72;99409.56;4900837;28;97352;-79
2021/07/14 02:29:39;;;;;;;22.10;18.98;;;;;;;24.25;67.90;99418.44;4899680;28;101853;-79
2021/07/14 02:32:06;;;;;;;23.15;20.25;;;;;;;24.30;67.57;99423.34;4884798;28;101566;-79
2021/07/14 02:34:32;;;;;;;20.25;18.35;;;;;;;24.40;67.45;99424.03;4899892;28;96944;-79
2021/07/14 02:36:59;;;;;;;21.13;19.23;;;;;;;24.38;67.29;99424.22;4900687;28;97270;-79
2021/07/14 02:39:25;;;;;;;22.67;20.58;;;;;;;24.52;67.09;99432.66;4913337;28;101479;-79
2021/07/14 02:42:05;;;;;;;21.73;19.52;;;;;;;24.45;67.12;99421.75;4919453;28;101436;-79
2021/07/14 02:44:39;;;;;;;21.70;19.58;;;;;;;24.50;67.05;99422.09;4903429;28;97061;-79
2021/07/14 02:47:06;;;;;;;22.58;20.52;;;;;;;24.62;66.58;99428.00;4920503;28;96776;-79
2021/07/14 02:49:32;;;;;;;23.25;20.73;;;;;;;24.59;66.63;99433.69;4934572;28;101693;-79
2021/07/14 02:51:59;;;;;;;21.13;18.98;;;;;;;24.43;67.26;99426.41;4915225;28;101829;-79
2021/07/14 02:54:26;;;;;;;24.42;22.30;;;;;;;24.30;67.42;99426.84;4927073;28;96693;-79
2021/07/14 02:57:00;;;;;;;25.73;23.02;;;;;;;24.11;68.14;99419.06;4903870;28;96871;-80
2021/07/14 02:59:28;;;;;;;20.92;18.95;;;;;;;24.18;67.88;99423.63;4935110;28;97996;-79
2021/07/14 03:01:55;;;;;;;22.90;20.33;;;;;;;24.37;67.42;99417.16;4919383;28;98261;-80
2021/07/14 03:04:25;;;;;;;23.08;20.80;;;;;;;24.33;67.65;99429.22;4918860;28;96680;-82
2021/07/14 03:06:52;;;;;;;23.80;21.35;;;;;;;24.27;67.99;99434.38;4919461;28;96698;-80
2021/07/14 03:09:19;;;;;;;23.17;20.83;;;;;;;24.17;67.76;99416.59;4918979;28;101643;-79
2021/07/14 03:11:46;;;;;;;22.50;20.48;;;;;;;24.13;68.20;99430.47;4918516;28;98733;-80
2021/07/14 03:14:13;;;;;;;22.45;20.35;;;;;;;24.04;68.46;99423.41;4903251;28;96970;-80
2021/07/14 03:16:40;;;;;;;23.52;20.98;;;;;;;24.17;68.17;99435.38;4918166;28;97117;-80
2021/07/14 03:19:07;;;;;;;21.88;19.88;;;;;;;23.99;68.49;99412.31;4919417;28;97552;-80
2021/07/14 03:21:34;;;;;;;22.42;20.13;;;;;;;23.98;68.24;99405.28;4918418;28;101311;-80
2021/07/14 03:24:02;;;;;;;21.80;19.70;;;;;;;24.23;68.06;99438.38;4919380;28;96955;-80
2021/07/14 03:26:28;;;;;;;21.08;19.17;;;;;;;24.36;67.95;99444.97;4912033;28;98416;-82
2021/07/14 03:28:54;;;;;;;24.40;21.60;;;;;;;24.52;67.36;99438.88;4911920;28;101251;-80
2021/07/14 03:31:20;;;;;;;22.25;19.98;;;;;;;24.45;67.40;99440.50;4898279;28;101420;-80
2021/07/14 03:33:46;;;;;;;21.42;18.75;;;;;;;24.34;67.71;99428.19;4898198;28;96766;-80
2021/07/14 03:36:12;;;;;;;21.30;19.20;;;;;;;24.36;68.15;99431.56;4916003;28;96966;-79
2021/07/14 03:38:38;;;;;;;21.17;19.33;;;;;;;24.48;67.65;99429.47;4898684;28;101357;-80
2021/07/14 03:41:04;;;;;;;20.95;18.92;;;;;;;24.53;67.50;99423.63;4888524;28;100789;-80
2021/07/14 03:43:32;;;;;;;20.73;18.83;;;;;;;24.57;67.27;99425.78;4923475;28;96621;-80
2021/07/14 03:45:59;;;;;;;19.63;18.00;;;;;;;24.70;67.11;99430.69;4916513;28;96953;-80
2021/07/14 03:48:28;;;;;;;20.58;18.58;;;;;;;24.73;66.97;99430.38;4907724;28;101111;-81
2021/07/14 03:50:55;;;;;;;20.02;18.00;;;;;;;24.66;67.24;99409.72;4933386;28;101209;-80
2021/07/14 03:53:23;;;;;;;19.73;17.80;;;;;;;24.67;66.99;99406.00;4933498;28;97207;-80
2021/07/14 03:55:48;;;;;;;20.95;19.15;;;;;;;24.74;66.92;99401.69;4933618;28;96875;-80
2021/07/14 03:58:14;;;;;;;21.58;19.48;;;;;;;24.78;67.09;99417.31;4950929;28;97949;-80
2021/07/14 04:00:40;;;;;;;21.60;19.48;;;;;;;24.73;67.04;99400.03;4933450;28;100966;-80
2021/07/14 04:03:09;;;;;;;21.85;19.27;;;;;;;24.84;67.24;99408.59;4918365;28;96512;-80
2021/07/14 04:05:39;;;;;;;22.70;20.17;;;;;;;24.82;67.28;99407.06;4901394;28;96930;-80
2021/07/14 04:08:04;;;;;;;22.55;20.27;;;;;;;24.89;67.13;99400.03;4912851;28;101483;-81
2021/07/14 04:10:30;;;;;;;21.15;19.10;;;;;;;24.91;67.02;99408.75;4896096;28;101143;-80
2021/07/14 04:12:56;;;;;;;22.63;19.70;;;;;;;25.03;66.71;99398.53;4930192;28;97325;-80
2021/07/14 04:15:21;;;;;;;22.25;20.20;;;;;;;24.97;66.77;99404.56;4898307;28;97044;-80
2021/07/14 04:17:47;;;;;;;21.50;19.50;;;;;;;25.00;66.89;99396.19;4913767;28;98194;-80
2021/07/14 04:20:13;;;;;;;24.75;20.08;;;;;;;25.03;66.93;99404.72;4914548;28;101228;-80
2021/07/14 04:22:38;;;;;;;22.90;20.45;;;;;;;25.02;67.00;99396.84;4898193;28;96982;-80
2021/07/14 04:25:04;;;;;;;20.83;18.70;;;;;;;25.19;66.88;99408.44;4898914;28;96898;-80
2021/07/14 04:27:30;;;;;;;19.42;17.42;;;;;;;25.37;66.33;99400.22;4915583;28;97327;-82
2021/07/14 04:29:55;;;;;;;20.65;18.55;;;;;;;25.37;66.10;99403.75;4915759;28;101507;-80
2021/07/14 04:32:21;;;;;;;21.90;19.80;;;;;;;25.52;65.76;99403.91;4914298;28;96839;-80
2021/07/14 04:34:47;;;;;;;22.42;20.25;;;;;;;25.57;65.67;99406.06;4913394;28;97606;-80
2021/07/14 04:37:12;;;;;;;23.13;20.88;;;;;;;25.64;65.53;99415.97;4913302;28;100910;-80
2021/07/14 04:39:38;;;;;;;21.95;19.77;;;;;;;25.48;65.15;99391.78;4897299;28;101554;-79
2021/07/14 04:42:04;;;;;;;25.95;21.30;;;;;;;25.79;64.64;99424.16;4898127;28;97068;-79
2021/07/14 04:44:32;;;;;;;22.67;20.33;;;;;;;25.74;65.08;99430.06;4898274;28;97041;-79
2021/07/14 04:46:58;;;;;;;21.35;19.15;;;;;;;25.83;64.89;99446.19;4898658;28;101415;-80
2021/07/14 04:49:24;;;;;;;22.40;18.73;;;;;;;25.92;64.43;99434.41;4913967;28;101395;-79
2021/07/14 04:51:49;;;;;;;22.38;18.77;;;;;;;26.02;63.97;99432.34;4910236;28;97761;-80
2021/07/14 04:54:15;;;;;;;19.02;17.17;;;;;;;26.08;63.84;99422.75;4881364;28;96940;-80
2021/07/14 04:56:41;;;;;;;18.60;16.65;;;;;;;25.93;64.48;99401.13;4895943;28;101745;-81
2021/07/14 04:59:06;;;;;;;19.50;16.13;;;;;;;25.85;64.42;99401.16;4898783;28;97925;-79
2021/07/14 05:01:32;;;;;;;20.15;16.33;;;;;;;25.92;63.89;99412.91;4913906;28;96685;-82
2021/07/14 05:03:58;;;;;;;21.58;16.75;;;;;;;25.98;63.68;99422.97;4898483;28;96843;-79
2021/07/14 05:06:23;;;;;;;16.98;15.15;;;;;;;26.05;63.62;99440.06;4881607;28;101348;-80
2021/07/14 05:08:49;;;;;;;16.70;15.05;;;;;;;26.11;63.14;99433.16;4897046;28;102003;-80
2021/07/14 05:11:15;;;;;;;19.40;13.77;;;;;;;26.13;62.95;99445.44;4903911;28;99741;-79
2021/07/14 05:13:41;;;;;;;22.55;15.02;;;;;;;26.11;63.13;99441.22;4899955;28;96949;-80
2021/07/14 05:16:09;;;;;;;20.45;14.23;;;;;;;26.11;63.56;99442.06;4915833;28;101366;-80
2021/07/14 05:18:38;;;;;;;18.73;14.45;;;;;;;26.13;63.07;99450.81;4900107;28;101315;-81
2021/07/14 05:21:05;;;;;;;18.83;14.95;;;;;;;26.00;63.32;99436.22;4917263;28;96904;-79
2021/07/14 05:23:31;;;;;;;25.42;15.48;;;;;;;26.00;63.17;99436.22;4901606;28;97235;-79
2021/07/14 05:25:56;;;;;;;17.65;14.68;;;;;;;26.20;62.58;99446.41;4916360;28;101545;-79
2021/07/14 05:28:22;;;;;;;21.63;15.43;;;;;;;26.50;61.76;99454.72;4916909;28;98430;-79
2021/07/14 05:30:47;;;;;;;17.85;14.82;;;;;;;26.66;61.45;99448.41;4915991;28;97017;-79
2021/07/14 05:33:15;;;;;;;16.33;14.13;;;;;;;26.79;60.97;99432.53;4895696;28;96953;-79
2021/07/14 05:35:40;;;;;;;20.75;14.05;;;;;;;27.09;60.75;99444.25;4895748;28;101869;-79
2021/07/14 05:38:06;;;;;;;17.35;12.38;;;;;;;27.17;60.16;99443.38;4896368;28;101205;-80
2021/07/14 05:40:32;;;;;;;17.98;12.43;;;;;;;27.36;58.81;99425.88;4897572;28;96765;-79
2021/07/14 05:42:58;;;;;;;18.10;12.45;;;;;;;27.87;57.79;99458.44;4880959;28;96913;-80
2021/07/14 05:45:24;;;;;;;14.73;8.75;;;;;;;28.05;57.32;99459.94;4915765;28;101175;-80
2021/07/14 05:47:50;;;;;;;15.38;9.98;;;;;;;28.13;56.28;99449.88;4899288;28;101310;-80
2021/07/14 05:50:16;;;;;;;15.82;9.38;;;;;;;28.28;56.01;99459.84;4932885;28;96600;-80
2021/07/14 05:52:41;;;;;;;18.13;9.63;;;;;;;28.95;54.77;99462.31;4925828;28;97191;-80
2021/07/14 05:55:10;;;;;;;21.13;9.70;;;;;;;29.52;53.63;99479.50;4895591;28;101319;-80
2021/07/14 05:57:36;;;;;;;13.93;8.52;;;;;;;29.31;54.01;99470.38;4911493;28;101146;-81
2021/07/14 06:00:05;;;;;;;11.90;8.77;;;;;;;29.04;54.53;99484.66;4896173;28;96938;-80
2021/07/14 06:02:31;;;;;;;14.15;8.52;;;;;;;29.25;53.58;99490.06;4913754;28;97046;-80
2021/07/14 06:04:56;;;;;;;13.50;9.05;;;;;;;30.51;50.78;99490.16;4896342;28;100328;-80
2021/07/14 06:07:22;;;;;;;17.20;8.60;;;;;;;31.41;48.33;99506.31;4881204;28;101654;-80
2021/07/14 06:09:48;;;;;;;14.18;7.53;;;;;;;31.87;47.57;99508.22;4912412;28;97005;-80
2021/07/14 06:12:13;;;;;;;16.52;7.50;;;;;;;30.70;49.58;99512.16;4914005;28;96908;-77
2021/07/14 06:14:39;;;;;;;16.02;7.95;;;;;;;29.89;50.97;99515.41;4893096;28;102058;-82
2021/07/14 06:17:05;;;;;;;13.30;7.15;;;;;;;29.27;52.31;99522.31;4914956;28;101712;-80
2021/07/14 06:19:30;;;;;;;16.17;7.45;;;;;;;28.88;52.98;99539.72;4931455;28;97082;-80
2021/07/14 06:21:56;;;;;;;15.77;6.88;;;;;;;28.60;53.62;99537.72;4915244;28;97589;-80
2021/07/14 06:24:21;;;;;;;14.98;6.45;;;;;;;28.29;53.95;99537.03;4916063;28;102152;-80
2021/07/14 06:26:47;;;;;;;12.35;6.38;;;;;;;28.27;53.78;99547.19;4915265;28;101775;-80
2021/07/14 06:29:12;;;;;;;14.98;6.30;;;;;;;28.18;53.30;99528.38;4896262;28;97098;-80
2021/07/14 06:31:38;;;;;;;16.05;6.43;;;;;;;28.12;53.85;99533.69;4887677;28;97070;-82
2021/07/14 06:34:04;;;;;;;23.00;6.38;;;;;;;27.93;54.48;99525.13;4893957;28;101535;-80
2021/07/14 06:36:29;;;;;;;16.25;6.93;;;;;;;27.70;55.29;99541.31;4905263;28;101677;-80
2021/07/14 06:38:58;;;;;;;17.80;6.47;;;;;;;27.67;55.35;99555.13;4902527;28;96944;-81
2021/07/14 06:41:24;;;;;;;14.07;4.72;;;;;;;27.57;55.58;99589.56;4889918;28;97222;-80
2021/07/14 06:43:50;;;;;;;12.60;6.40;;;;;;;27.41;55.85;99622.03;4893117;28;100889;-80
2021/07/14 06:46:18;;;;;;;19.17;5.70;;;;;;;27.39;55.76;99638.38;4938400;28;98492;-80
2021/07/14 06:48:44;;;;;;;12.65;5.90;;;;;;;27.33;55.84;99632.88;4894472;28;96910;-81
2021/07/14 06:51:10;;;;;;;14.10;5.15;;;;;;;27.26;56.20;99641.66;4900559;28;96931;-80
2021/07/14 06:53:36;;;;;;;16.60;6.10;;;;;;;27.34;55.85;99678.47;4898170;28;101878;-80
2021/07/14 06:56:02;;;;;;;15.50;6.35;;;;;;;27.36;55.49;99706.09;4911451;28;102157;-80
2021/07/14 06:58:28;;;;;;;17.83;5.60;;;;;;;27.38;55.70;99725.63;4917293;28;97164;-81
2021/07/14 07:00:57;;;;;;;12.15;5.38;;;;;;;27.51;55.65;99706.19;4910100;28;97150;-80
2021/07/14 07:03:23;;;;;;;14.75;5.05;;;;;;;28.18;54.33;99711.81;4909386;28;101641;-80
2021/07/14 07:05:49;;;;;;;18.20;5.20;;;;;;;28.20;54.51;99682.81;4896064;28;101372;-80
2021/07/14 07:08:14;;;;;;;11.15;5.80;;;;;;;28.11;54.95;99713.59;4894280;28;96925;-81
2021/07/14 07:10:41;;;;;;;13.05;5.38;;;;;;;28.05;55.08;99708.09;4926923;28;96901;-82
2021/07/14 07:13:07;;;;;;;16.10;3.40;;;;;;;29.21;50.69;99702.25;4906750;28;101295;-80
2021/07/14 07:15:33;;;;;;;8.52;3.03;;;;;;;29.57;49.06;99677.13;4916194;28;101603;-81
2021/07/14 07:17:58;;;;;;;10.23;2.90;;;;;;;31.32;45.90;99671.03;4909398;28;97251;-81
2021/07/14 07:20:24;;;;;;;11.38;3.00;;;;;;;32.07;43.98;99668.34;4913556;28;97085;-81
2021/07/14 07:22:50;;;;;;;6.32;2.78;;;;;;;32.03;43.63;99654.34;4907792;28;101144;-80
2021/07/14 07:25:15;;;;;;;4.63;2.40;;;;;;;31.34;45.13;99647.25;4923431;28;98087;-80
2021/07/14 07:27:42;;;;;;;10.43;2.88;;;;;;;30.29;47.73;99649.16;4909364;28;96857;-81
2021/07/14 07:30:09;;;;;;;9.88;2.50;;;;;;;30.29;47.06;99623.97;4908689;28;96950;-81
2021/07/14 07:32:35;;;;;;;9.82;2.80;;;;;;;31.72;44.77;99622.34;4914897;28;101309;-81
2021/07/14 07:35:01;;;;;;;8.00;2.20;;;;;;;31.73;44.93;99629.44;4914898;28;101040;-79
2021/07/14 07:37:26;;;;;;;11.60;2.80;;;;;;;30.96;46.43;99633.34;4903737;28;96599;-78
2021/07/14 07:39:52;;;;;;;12.77;2.70;;;;;;;30.36;47.00;99630.25;4913837;28;96870;-80
2021/07/14 07:42:17;;;;;;;9.95;2.15;;;;;;;30.63;47.09;99647.50;4897724;28;101590;-79
2021/07/14 07:44:43;;;;;;;7.07;2.10;;;;;;;30.24;47.92;99638.06;4882102;28;101352;-80
2021/07/14 07:47:09;;;;;;;9.57;2.47;;;;;;;29.76;48.42;99645.94;4915063;28;96697;-80
2021/07/14 07:49:35;;;;;;;8.57;2.20;;;;;;;29.34;49.95;99671.84;4916997;28;96812;-80
2021/07/14 07:52:02;;;;;;;11.30;2.72;;;;;;;28.92;50.85;99692.28;4914772;28;101747;-84
2021/07/14 07:54:28;;;;;;;7.75;2.00;;;;;;;28.91;49.87;99682.47;4883756;28;101274;-84
2021/07/14 07:56:54;;;;;;;6.78;2.33;;;;;;;28.69;50.32;99675.31;4899135;28;97074;-84
2021/07/14 07:59:20;;;;;;;6.57;1.75;;;;;;;28.79;49.81;99665.06;4906021;28;98157;-84
2021/07/14 08:01:45;;;;;;;7.25;2.25;;;;;;;28.90;49.26;99670.00;4902552;28;101245;-86
2021/07/14 08:04:11;;;;;;;5.50;1.70;;;;;;;29.32;47.85;99646.88;4912522;28;101499;-84
2021/07/14 08:06:37;;;;;;;4.93;1.80;;;;;;;29.34;47.99;99680.78;4915916;28;96863;-83
2021/07/14 08:09:05;;;;;;;5.55;1.88;;;;;;;28.95;48.97;99677.56;4898188;28;96876;-82
2021/07/14 08:11:31;;;;;;;3.10;1.40;;;;;;;28.84;48.83;99657.25;4899073;28;99712;-83
2021/07/14 08:13:59;;;;;;;6.45;1.63;;;;;;;29.04;46.99;99690.81;4898278;28;100923;-85
2021/07/14 08:16:26;;;;;;;8.90;1.65;;;;;;;28.40;48.79;99668.81;4894770;28;97281;-84
2021/07/14 08:18:52;;;;;;;6.88;1.20;;;;;;;28.62;47.31;99684.16;4920552;28;97530;-83
2021/07/14 08:21:18;;;;;;;3.50;1.17;;;;;;;29.08;46.17;99704.78;4908365;28;101448;-84
2021/07/14 08:23:45;;;;;;;7.78;1.40;;;;;;;28.85;45.62;99677.81;4893726;28;101723;-85
2021/07/14 08:26:12;;;;;;;5.05;1.20;;;;;;;28.47;46.65;99702.19;4904871;28;96871;-85
2021/07/14 08:28:42;;;;;;;4.03;1.40;;;;;;;28.49;46.75;99678.53;4896547;28;97420;-84
2021/07/14 08:31:07;;;;;;;3.73;1.20;;;;;;;28.56;46.51;99673.25;4895242;28;101969;-85
2021/07/14 08:33:35;;;;;;;2.83;1.30;;;;;;;28.59;46.55;99648.56;4905876;28;101302;-85
2021/07/14 08:36:02;;;;;;;5.47;1.17;;;;;;;28.75;45.93;99664.59;4890274;28;96844;-85
2021/07/14 08:38:28;;;;;;;8.20;1.80;;;;;;;28.64;46.87;99690.19;4907128;28;97118;-85
2021/07/14 08:43:57;;;;;;;4.93;1.33;;;;;;;28.21;47.82;99676.38;4924936;28;100654;-86
2021/07/14 08:46:23;;;;;;;4.20;1.33;;;;;;;28.02;48.96;99662.59;4887773;28;96840;-86
2021/07/14 08:48:49;;;;;;;7.13;1.63;;;;;;;28.17;48.81;99725.50;4907134;28;97186;-88
2021/07/14 08:51:15;;;;;;;3.65;1.35;;;;;;;28.48;47.95;99741.66;4911601;28;101155;-84
2021/07/14 08:53:41;;;;;;;4.68;1.23;;;;;;;28.42;48.13;99740.53;4883225;28;100862;-84
2021/07/14 08:56:07;;;;;;;7.53;1.85;;;;;;;28.36;48.19;99740.34;4904652;28;96965;-85
2021/07/14 08:58:33;;;;;;;6.30;1.83;;;;;;;28.33;48.52;99773.09;4895436;28;96880;-85
2021/07/14 09:00:59;;;;;;;5.90;1.55;;;;;;;27.86;48.40;99790.28;4895242;28;103159;-86
2021/07/14 09:03:26;;;;;;;15.27;1.92;;;;;;;27.20;49.24;99784.25;4884143;28;101658;-85
2021/07/14 09:05:52;;;;;;;6.80;1.63;;;;;;;26.91;50.04;99793.75;4915713;28;96716;-85
2021/07/14 09:08:17;;;;;;;5.38;1.60;;;;;;;26.83;51.20;99782.97;4914439;28;97520;-84
2021/07/14 09:10:47;;;;;;;7.53;1.48;;;;;;;27.03;50.59;99786.97;4914179;28;98129;-84
2021/07/14 09:13:14;;;;;;;5.53;1.83;;;;;;;27.14;50.65;99810.03;4910538;28;101158;-83
2021/07/14 09:15:45;;;;;;;3.95;1.45;;;;;;;27.02;51.09;99782.63;4917247;28;97282;-83
2021/07/14 09:18:15;;;;;;;6.30;1.98;;;;;;;26.90;51.56;99738.19;4897401;28;97189;-81
2021/07/14 09:20:42;;;;;;;9.02;1.70;;;;;;;26.87;52.09;99752.84;4900655;28;100978;-78
2021/07/14 09:23:18;;;;;;;5.65;1.85;;;;;;;26.85;52.38;99776.41;4907737;28;101907;-79
2021/07/14 09:25:48;;;;;;;6.15;2.10;;;;;;;27.11;50.76;99815.75;4901713;28;97204;-78
2021/07/14 09:28:16;;;;;;;8.03;1.73;;;;;;;26.96;51.32;99766.28;4920388;28;97558;-84
2021/07/14 09:30:44;;;;;;;13.30;2.33;;;;;;;26.92;52.20;99800.81;4879041;28;101050;-80
2021/07/14 09:33:13;;;;;;;7.40;1.80;;;;;;;26.85;51.51;99824.03;4925312;28;97422;-81
2021/07/14 09:35:45;;;;;;;6.22;1.70;;;;;;;26.82;51.81;99832.44;4899659;28;97313;-80
2021/07/14 09:38:18;;;;;;;9.13;2.03;;;;;;;26.83;52.44;99824.19;4904658;28;97541;-79
2021/07/14 09:40:47;;;;;;;5.20;1.73;;;;;;;26.78;52.81;99868.78;4902210;28;97929;-79
2021/07/14 09:43:27;;;;;;;6.93;1.92;;;;;;;26.55;53.29;99934.03;4893856;28;101204;-80
2021/07/14 09:45:55;;;;;;;8.50;1.85;;;;;;;26.30;54.26;99956.47;4909464;28;96710;-78
2021/07/14 09:48:31;;;;;;;7.85;2.38;;;;;;;26.27;54.46;99916.41;4894036;28;96817;-78
2021/07/14 09:51:10;;;;;;;14.70;6.57;;;;;;;26.05;56.40;99877.53;4894198;28;101298;-78
2021/07/14 09:53:42;;;;;;;13.73;6.38;;;;;;;25.97;57.42;99889.94;4890222;28;101651;-79
2021/07/14 09:56:12;;;;;;;6.20;2.17;;;;;;;25.82;58.12;99872.72;4900042;28;96934;-80
2021/07/14 09:58:37;;;;;;;8.70;1.93;;;;;;;25.87;58.17;99866.88;4878186;28;96940;-79
2021/07/14 10:01:04;;;;;;;9.40;2.47;;;;;;;25.86;58.83;99839.16;4908432;28;102080;-79
2021/07/14 10:03:36;;;;;;;4.65;1.80;;;;;;;25.54;59.65;99815.66;4914292;28;97919;-79
2021/07/14 10:06:13;;;;;;;5.78;2.10;;;;;;;25.73;58.68;99819.91;4904253;28;97412;-80
2021/07/14 10:08:40;;;;;;;5.85;2.22;;;;;;;26.04;59.81;99843.59;4902111;28;97268;-80
2021/07/14 10:11:12;;;;;;;5.25;2.08;;;;;;;26.09;60.26;99854.69;4924276;28;101162;-79
2021/07/14 10:13:40;;;;;;;7.22;2.30;;;;;;;25.97;59.04;99844.22;4882728;28;99782;-79
2021/07/14 10:16:06;;;;;;;5.50;2.00;;;;;;;26.10;57.66;99803.44;4899662;28;97566;-80
2021/07/14 10:18:32;;;;;;;4.03;2.00;;;;;;;26.33;58.35;99792.03;4907248;28;97455;-80
2021/07/14 10:21:04;;;;;;;6.72;1.92;;;;;;;26.10;58.03;99802.59;4896245;28;101833;-80
2021/07/14 10:23:30;;;;;;;6.35;2.10;;;;;;;26.25;57.87;99854.72;4878356;28;102024;-79
2021/07/14 10:25:58;;;;;;;5.70;2.17;;;;;;;26.03;58.17;99856.16;4908503;28;97248;-80
2021/07/14 10:28:24;;;;;;;6.78;2.35;;;;;;;25.84;59.10;99873.41;4910396;28;97947;-80
2021/07/14 10:30:52;;;;;;;6.50;2.25;;;;;;;25.72;59.51;99867.47;4911717;28;101816;-79
2021/07/14 10:33:18;;;;;;;11.65;2.40;;;;;;;25.48;60.11;99867.31;4912688;28;98378;-79
2021/07/14 10:35:45;;;;;;;4.53;2.08;;;;;;;25.53;59.74;99838.97;4912184;28;97256;-79
2021/07/14 10:38:25;;;;;;;5.53;2.10;;;;;;;25.57;60.23;99835.97;4888944;28;97309;-80
2021/07/14 10:40:52;;;;;;;3.88;2.00;;;;;;;25.59;59.51;99823.22;4919182;28;101846;-79
2021/07/14 10:43:21;;;;;;;5.75;2.92;;;;;;;25.60;59.36;99804.25;4909040;28;98610;-80
2021/07/14 10:45:48;;;;;;;4.35;1.80;;;;;;;25.92;59.14;99818.84;4903848;28;97249;-80
2021/07/14 10:48:15;;;;;;;5.57;1.92;;;;;;;26.19;57.95;99809.66;4905077;28;97283;-80
2021/07/14 10:50:40;;;;;;;6.60;1.92;;;;;;;26.34;57.83;99796.41;4914908;28;98135;-80
2021/07/14 10:53:06;;;;;;;3.70;2.10;;;;;;;26.30;56.93;99765.47;4906349;28;100971;-82
2021/07/14 10:55:32;;;;;;;9.77;1.98;;;;;;;26.26;57.68;99740.75;4910548;28;96795;-79
2021/07/14 10:57:58;;;;;;;7.57;2.35;;;;;;;26.25;56.84;99722.94;4906566;28;97673;-84
2021/07/14 11:00:23;;;;;;;6.13;1.98;;;;;;;26.31;56.48;99716.88;4888545;28;101511;-83
2021/07/14 11:02:51;;;;;;;6.35;2.22;;;;;;;26.32;56.09;99699.72;4902510;28;97892;-84
2021/07/14 11:05:34;;;;;;;8.38;2.75;;;;;;;26.47;55.32;99713.34;4919283;28;96761;-83
2021/07/14 11:08:00;;;;;;;5.53;1.80;;;;;;;26.78;53.83;99736.88;4881987;28;98586;-82
2021/07/14 11:10:34;;;;;;;6.25;2.00;;;;;;;26.68;54.22;99747.84;4908236;28;101166;-79
2021/07/14 11:13:30;;;;;;;7.35;2.15;;;;;;;26.87;54.71;99733.16;4924688;28;101764;-76
2021/07/14 11:16:24;;;;;;;7.05;2.55;;;;;;;26.83;54.37;99724.59;4881598;28;96992;-79
2021/07/14 11:19:10;;;;;;;6.43;2.20;;;;;;;26.91;55.22;99715.66;4914704;28;97043;-80
2021/07/14 11:21:58;;;;;;;4.72;2.40;;;;;;;26.73;54.61;99701.53;4896519;28;101167;-79
2021/07/14 11:24:54;;;;;;;7.70;2.20;;;;;;;26.63;54.96;99707.13;4912602;28;101489;-80
2021/07/14 11:27:22;;;;;;;7.50;2.58;;;;;;;26.77;54.95;99701.03;4902153;28;96892;-80
2021/07/14 11:29:54;;;;;;;6.03;2.08;;;;;;;26.80;54.34;99698.00;4926697;28;97110;-79